sensor_id;sensor_type;location;lat;lon;timestamp;P1;durP1;ratioP1;P2;durP2;ratioP2
58412;SDS011;44209;52.952;6.790;2024-01-30T00:01:51;28.27;;;21.60;;
58412;SDS011;44209;52.952;6.790;2024-01-30T00:04:17;26.47;;;21.03;;
58412;SDS011;44209;52.952;6.790;2024-01-30T00:06:43;25.33;;;20.33;;
58412;SDS011;44209;52.952;6.790;2024-01-30T00:09:09;23.93;;;19.77;;
58412;SDS011;44209;52.952;6.790;2024-01-30T00:11:36;26.77;;;20.07;;
58412;SDS011;44209;52.952;6.790;2024-01-30T00:14:02;25.70;;;20.20;;
58412;SDS011;44209;52.952;6.790;2024-01-30T00:16:28;26.93;;;20.67;;
58412;SDS011;44209;52.952;6.790;2024-01-30T00:18:54;28.27;;;22.20;;
58412;SDS011;44209;52.952;6.790;2024-01-30T00:21:20;24.37;;;20.30;;
58412;SDS011;44209;52.952;6.790;2024-01-30T00:23:47;23.90;;;19.80;;
58412;SDS011;44209;52.952;6.790;2024-01-30T00:26:13;27.67;;;21.43;;
58412;SDS011;44209;52.952;6.790;2024-01-30T00:28:43;30.03;;;22.73;;
58412;SDS011;44209;52.952;6.790;2024-01-30T00:31:09;24.43;;;20.40;;
58412;SDS011;44209;52.952;6.790;2024-01-30T00:33:38;23.67;;;19.43;;
58412;SDS011;44209;52.952;6.790;2024-01-30T00:36:08;24.87;;;20.50;;
58412;SDS011;44209;52.952;6.790;2024-01-30T00:38:34;26.03;;;20.47;;
58412;SDS011;44209;52.952;6.790;2024-01-30T00:41:00;22.23;;;18.43;;
58412;SDS011;44209;52.952;6.790;2024-01-30T00:43:27;27.80;;;20.63;;
58412;SDS011;44209;52.952;6.790;2024-01-30T00:45:53;24.70;;;20.80;;
58412;SDS011;44209;52.952;6.790;2024-01-30T00:48:19;26.17;;;20.57;;
58412;SDS011;44209;52.952;6.790;2024-01-30T00:50:45;28.13;;;22.10;;
58412;SDS011;44209;52.952;6.790;2024-01-30T00:53:11;29.67;;;22.97;;
58412;SDS011;44209;52.952;6.790;2024-01-30T00:55:36;30.13;;;22.77;;
58412;SDS011;44209;52.952;6.790;2024-01-30T00:58:02;32.10;;;22.17;;
58412;SDS011;44209;52.952;6.790;2024-01-30T01:00:28;23.60;;;20.13;;
58412;SDS011;44209;52.952;6.790;2024-01-30T01:02:55;26.90;;;21.37;;
58412;SDS011;44209;52.952;6.790;2024-01-30T01:05:21;24.00;;;20.37;;
58412;SDS011;44209;52.952;6.790;2024-01-30T01:07:46;26.07;;;19.87;;
58412;SDS011;44209;52.952;6.790;2024-01-30T01:10:16;24.70;;;20.07;;
58412;SDS011;44209;52.952;6.790;2024-01-30T01:12:42;25.33;;;19.20;;
58412;SDS011;44209;52.952;6.790;2024-01-30T01:15:08;27.43;;;19.87;;
58412;SDS011;44209;52.952;6.790;2024-01-30T01:17:37;21.77;;;18.73;;
58412;SDS011;44209;52.952;6.790;2024-01-30T01:20:03;25.07;;;20.73;;
58412;SDS011;44209;52.952;6.790;2024-01-30T01:22:32;24.97;;;19.80;;
58412;SDS011;44209;52.952;6.790;2024-01-30T01:24:59;24.07;;;18.63;;
58412;SDS011;44209;52.952;6.790;2024-01-30T01:27:25;26.83;;;19.50;;
58412;SDS011;44209;52.952;6.790;2024-01-30T01:29:51;26.13;;;20.00;;
58412;SDS011;44209;52.952;6.790;2024-01-30T01:32:17;25.20;;;20.13;;
58412;SDS011;44209;52.952;6.790;2024-01-30T01:34:43;28.77;;;20.70;;
58412;SDS011;44209;52.952;6.790;2024-01-30T01:37:09;27.60;;;20.73;;
58412;SDS011;44209;52.952;6.790;2024-01-30T01:39:35;27.73;;;20.23;;
58412;SDS011;44209;52.952;6.790;2024-01-30T01:42:01;25.00;;;19.37;;
58412;SDS011;44209;52.952;6.790;2024-01-30T01:44:26;25.07;;;19.27;;
58412;SDS011;44209;52.952;6.790;2024-01-30T01:46:52;25.07;;;20.73;;
58412;SDS011;44209;52.952;6.790;2024-01-30T01:49:19;27.03;;;20.03;;
58412;SDS011;44209;52.952;6.790;2024-01-30T01:51:46;23.53;;;19.13;;
58412;SDS011;44209;52.952;6.790;2024-01-30T01:54:13;25.77;;;19.90;;
58412;SDS011;44209;52.952;6.790;2024-01-30T01:56:40;28.50;;;20.43;;
58412;SDS011;44209;52.952;6.790;2024-01-30T01:59:08;27.33;;;21.07;;
58412;SDS011;44209;52.952;6.790;2024-01-30T02:01:34;28.30;;;20.60;;
58412;SDS011;44209;52.952;6.790;2024-01-30T02:04:01;26.33;;;20.20;;
58412;SDS011;44209;52.952;6.790;2024-01-30T02:06:27;26.23;;;19.87;;
58412;SDS011;44209;52.952;6.790;2024-01-30T02:08:56;27.30;;;20.00;;
58412;SDS011;44209;52.952;6.790;2024-01-30T02:11:22;27.10;;;20.70;;
58412;SDS011;44209;52.952;6.790;2024-01-30T02:13:48;26.13;;;20.73;;
58412;SDS011;44209;52.952;6.790;2024-01-30T02:16:15;25.00;;;19.87;;
58412;SDS011;44209;52.952;6.790;2024-01-30T02:18:42;27.13;;;20.67;;
58412;SDS011;44209;52.952;6.790;2024-01-30T02:21:10;28.53;;;21.07;;
58412;SDS011;44209;52.952;6.790;2024-01-30T02:23:37;24.33;;;19.80;;
58412;SDS011;44209;52.952;6.790;2024-01-30T02:26:04;25.80;;;20.90;;
58412;SDS011;44209;52.952;6.790;2024-01-30T02:28:30;27.50;;;20.27;;
58412;SDS011;44209;52.952;6.790;2024-01-30T02:30:56;25.77;;;20.07;;
58412;SDS011;44209;52.952;6.790;2024-01-30T02:33:21;26.53;;;20.13;;
58412;SDS011;44209;52.952;6.790;2024-01-30T02:35:47;26.27;;;20.53;;
58412;SDS011;44209;52.952;6.790;2024-01-30T02:38:13;24.77;;;19.70;;
58412;SDS011;44209;52.952;6.790;2024-01-30T02:40:40;28.17;;;20.60;;
58412;SDS011;44209;52.952;6.790;2024-01-30T02:43:06;27.43;;;19.63;;
58412;SDS011;44209;52.952;6.790;2024-01-30T02:45:32;25.67;;;19.73;;
58412;SDS011;44209;52.952;6.790;2024-01-30T02:47:57;26.93;;;20.83;;
58412;SDS011;44209;52.952;6.790;2024-01-30T02:50:23;24.10;;;19.20;;
58412;SDS011;44209;52.952;6.790;2024-01-30T02:52:49;24.60;;;19.90;;
58412;SDS011;44209;52.952;6.790;2024-01-30T02:55:14;26.33;;;20.03;;
58412;SDS011;44209;52.952;6.790;2024-01-30T02:57:42;25.10;;;19.57;;
58412;SDS011;44209;52.952;6.790;2024-01-30T03:00:08;27.23;;;18.90;;
58412;SDS011;44209;52.952;6.790;2024-01-30T03:02:34;23.43;;;18.67;;
58412;SDS011;44209;52.952;6.790;2024-01-30T03:05:00;24.33;;;19.53;;
58412;SDS011;44209;52.952;6.790;2024-01-30T03:07:26;24.10;;;19.57;;
58412;SDS011;44209;52.952;6.790;2024-01-30T03:09:52;23.87;;;20.13;;
58412;SDS011;44209;52.952;6.790;2024-01-30T03:12:17;27.77;;;19.40;;
58412;SDS011;44209;52.952;6.790;2024-01-30T03:14:43;28.83;;;19.63;;
58412;SDS011;44209;52.952;6.790;2024-01-30T03:17:09;25.23;;;20.20;;
58412;SDS011;44209;52.952;6.790;2024-01-30T03:19:34;24.17;;;19.07;;
58412;SDS011;44209;52.952;6.790;2024-01-30T03:22:00;24.73;;;19.30;;
58412;SDS011;44209;52.952;6.790;2024-01-30T03:24:26;27.17;;;20.27;;
58412;SDS011;44209;52.952;6.790;2024-01-30T03:26:52;26.70;;;19.03;;
58412;SDS011;44209;52.952;6.790;2024-01-30T03:29:18;23.40;;;19.20;;
58412;SDS011;44209;52.952;6.790;2024-01-30T03:31:43;24.40;;;18.67;;
58412;SDS011;44209;52.952;6.790;2024-01-30T03:34:09;23.77;;;18.13;;
58412;SDS011;44209;52.952;6.790;2024-01-30T03:36:35;22.90;;;18.40;;
58412;SDS011;44209;52.952;6.790;2024-01-30T03:39:01;25.50;;;19.03;;
58412;SDS011;44209;52.952;6.790;2024-01-30T03:41:27;24.67;;;18.97;;
58412;SDS011;44209;52.952;6.790;2024-01-30T03:43:52;24.43;;;18.60;;
58412;SDS011;44209;52.952;6.790;2024-01-30T03:46:18;24.60;;;18.60;;
58412;SDS011;44209;52.952;6.790;2024-01-30T03:48:44;21.97;;;18.63;;
58412;SDS011;44209;52.952;6.790;2024-01-30T03:51:11;23.33;;;18.00;;
58412;SDS011;44209;52.952;6.790;2024-01-30T03:53:40;24.63;;;18.43;;
58412;SDS011;44209;52.952;6.790;2024-01-30T03:56:06;23.73;;;18.30;;
58412;SDS011;44209;52.952;6.790;2024-01-30T03:58:32;24.07;;;17.60;;
58412;SDS011;44209;52.952;6.790;2024-01-30T04:00:58;25.67;;;18.07;;
58412;SDS011;44209;52.952;6.790;2024-01-30T04:03:24;21.63;;;17.20;;
58412;SDS011;44209;52.952;6.790;2024-01-30T04:05:51;20.97;;;16.97;;
58412;SDS011;44209;52.952;6.790;2024-01-30T04:08:17;22.27;;;16.37;;
58412;SDS011;44209;52.952;6.790;2024-01-30T04:10:42;20.67;;;17.43;;
58412;SDS011;44209;52.952;6.790;2024-01-30T04:13:08;24.07;;;17.83;;
58412;SDS011;44209;52.952;6.790;2024-01-30T04:15:34;20.93;;;17.43;;
58412;SDS011;44209;52.952;6.790;2024-01-30T04:18:00;22.87;;;18.10;;
58412;SDS011;44209;52.952;6.790;2024-01-30T04:20:26;22.83;;;16.83;;
58412;SDS011;44209;52.952;6.790;2024-01-30T04:22:51;23.30;;;17.60;;
58412;SDS011;44209;52.952;6.790;2024-01-30T04:25:17;22.37;;;16.60;;
58412;SDS011;44209;52.952;6.790;2024-01-30T04:27:43;23.50;;;16.53;;
58412;SDS011;44209;52.952;6.790;2024-01-30T04:30:09;24.93;;;16.60;;
58412;SDS011;44209;52.952;6.790;2024-01-30T04:32:35;21.77;;;16.00;;
58412;SDS011;44209;52.952;6.790;2024-01-30T04:35:01;22.27;;;16.77;;
58412;SDS011;44209;52.952;6.790;2024-01-30T04:37:28;20.47;;;16.40;;
58412;SDS011;44209;52.952;6.790;2024-01-30T04:39:55;21.27;;;16.67;;
58412;SDS011;44209;52.952;6.790;2024-01-30T04:42:20;19.97;;;16.00;;
58412;SDS011;44209;52.952;6.790;2024-01-30T04:44:46;25.30;;;16.40;;
58412;SDS011;44209;52.952;6.790;2024-01-30T04:47:12;23.43;;;16.67;;
58412;SDS011;44209;52.952;6.790;2024-01-30T04:49:38;21.80;;;16.40;;
58412;SDS011;44209;52.952;6.790;2024-01-30T04:52:07;20.77;;;16.37;;
58412;SDS011;44209;52.952;6.790;2024-01-30T04:54:33;20.47;;;16.00;;
58412;SDS011;44209;52.952;6.790;2024-01-30T04:57:00;19.27;;;16.17;;
58412;SDS011;44209;52.952;6.790;2024-01-30T04:59:26;21.70;;;16.67;;
58412;SDS011;44209;52.952;6.790;2024-01-30T05:01:52;21.93;;;15.93;;
58412;SDS011;44209;52.952;6.790;2024-01-30T05:04:17;21.77;;;16.67;;
58412;SDS011;44209;52.952;6.790;2024-01-30T05:06:43;21.23;;;16.23;;
58412;SDS011;44209;52.952;6.790;2024-01-30T05:09:09;25.53;;;17.17;;
58412;SDS011;44209;52.952;6.790;2024-01-30T05:11:38;19.57;;;16.00;;
58412;SDS011;44209;52.952;6.790;2024-01-30T05:14:05;19.70;;;16.63;;
58412;SDS011;44209;52.952;6.790;2024-01-30T05:16:31;20.07;;;16.77;;
58412;SDS011;44209;52.952;6.790;2024-01-30T05:18:57;22.93;;;17.13;;
58412;SDS011;44209;52.952;6.790;2024-01-30T05:21:23;23.90;;;17.17;;
58412;SDS011;44209;52.952;6.790;2024-01-30T05:23:49;23.50;;;16.83;;
58412;SDS011;44209;52.952;6.790;2024-01-30T05:26:15;24.90;;;17.20;;
58412;SDS011;44209;52.952;6.790;2024-01-30T05:28:40;24.37;;;17.30;;
58412;SDS011;44209;52.952;6.790;2024-01-30T05:31:06;23.80;;;17.03;;
58412;SDS011;44209;52.952;6.790;2024-01-30T05:33:32;22.57;;;16.30;;
58412;SDS011;44209;52.952;6.790;2024-01-30T05:35:57;20.87;;;16.83;;
58412;SDS011;44209;52.952;6.790;2024-01-30T05:38:23;21.77;;;16.87;;
58412;SDS011;44209;52.952;6.790;2024-01-30T05:40:49;23.07;;;17.13;;
58412;SDS011;44209;52.952;6.790;2024-01-30T05:43:14;24.53;;;17.37;;
58412;SDS011;44209;52.952;6.790;2024-01-30T05:45:40;24.23;;;16.73;;
58412;SDS011;44209;52.952;6.790;2024-01-30T05:48:06;21.90;;;16.50;;
58412;SDS011;44209;52.952;6.790;2024-01-30T05:50:32;20.67;;;16.13;;
58412;SDS011;44209;52.952;6.790;2024-01-30T05:52:57;22.23;;;16.43;;
58412;SDS011;44209;52.952;6.790;2024-01-30T05:55:23;22.20;;;16.40;;
58412;SDS011;44209;52.952;6.790;2024-01-30T05:57:49;23.67;;;16.53;;
58412;SDS011;44209;52.952;6.790;2024-01-30T06:00:16;22.87;;;17.63;;
58412;SDS011;44209;52.952;6.790;2024-01-30T06:02:42;21.03;;;16.90;;
58412;SDS011;44209;52.952;6.790;2024-01-30T06:05:07;22.23;;;16.90;;
58412;SDS011;44209;52.952;6.790;2024-01-30T06:07:33;21.23;;;16.67;;
58412;SDS011;44209;52.952;6.790;2024-01-30T06:10:00;22.50;;;17.00;;
58412;SDS011;44209;52.952;6.790;2024-01-30T06:12:27;22.13;;;16.83;;
58412;SDS011;44209;52.952;6.790;2024-01-30T06:14:53;24.67;;;16.80;;
58412;SDS011;44209;52.952;6.790;2024-01-30T06:17:21;22.53;;;17.80;;
58412;SDS011;44209;52.952;6.790;2024-01-30T06:19:49;22.47;;;17.47;;
58412;SDS011;44209;52.952;6.790;2024-01-30T06:22:15;22.20;;;16.90;;
58412;SDS011;44209;52.952;6.790;2024-01-30T06:24:43;23.07;;;17.80;;
58412;SDS011;44209;52.952;6.790;2024-01-30T06:27:10;23.33;;;17.30;;
58412;SDS011;44209;52.952;6.790;2024-01-30T06:29:36;20.70;;;15.73;;
58412;SDS011;44209;52.952;6.790;2024-01-30T06:32:02;23.70;;;16.50;;
58412;SDS011;44209;52.952;6.790;2024-01-30T06:34:28;22.00;;;16.70;;
58412;SDS011;44209;52.952;6.790;2024-01-30T06:36:53;22.50;;;16.97;;
58412;SDS011;44209;52.952;6.790;2024-01-30T06:39:19;23.37;;;16.97;;
58412;SDS011;44209;52.952;6.790;2024-01-30T06:41:45;21.67;;;16.60;;
58412;SDS011;44209;52.952;6.790;2024-01-30T06:44:11;23.47;;;16.50;;
58412;SDS011;44209;52.952;6.790;2024-01-30T06:46:38;22.77;;;17.07;;
58412;SDS011;44209;52.952;6.790;2024-01-30T06:49:04;24.13;;;16.90;;
58412;SDS011;44209;52.952;6.790;2024-01-30T06:51:30;22.20;;;17.00;;
58412;SDS011;44209;52.952;6.790;2024-01-30T06:53:56;20.57;;;16.87;;
58412;SDS011;44209;52.952;6.790;2024-01-30T06:56:22;22.70;;;16.73;;
58412;SDS011;44209;52.952;6.790;2024-01-30T06:58:48;22.30;;;17.00;;
58412;SDS011;44209;52.952;6.790;2024-01-30T07:01:14;22.57;;;17.13;;
58412;SDS011;44209;52.952;6.790;2024-01-30T07:03:40;22.50;;;17.03;;
58412;SDS011;44209;52.952;6.790;2024-01-30T07:06:06;22.67;;;17.63;;
58412;SDS011;44209;52.952;6.790;2024-01-30T07:08:31;22.13;;;17.13;;
58412;SDS011;44209;52.952;6.790;2024-01-30T07:10:57;21.43;;;16.50;;
58412;SDS011;44209;52.952;6.790;2024-01-30T07:13:23;22.57;;;17.00;;
58412;SDS011;44209;52.952;6.790;2024-01-30T07:15:49;25.07;;;17.57;;
58412;SDS011;44209;52.952;6.790;2024-01-30T07:18:15;23.77;;;18.33;;
58412;SDS011;44209;52.952;6.790;2024-01-30T07:20:41;25.40;;;18.13;;
58412;SDS011;44209;52.952;6.790;2024-01-30T07:23:11;23.70;;;17.53;;
58412;SDS011;44209;52.952;6.790;2024-01-30T07:25:42;21.03;;;16.23;;
58412;SDS011;44209;52.952;6.790;2024-01-30T07:28:11;23.83;;;17.30;;
58412;SDS011;44209;52.952;6.790;2024-01-30T07:30:41;22.67;;;17.43;;
58412;SDS011;44209;52.952;6.790;2024-01-30T07:33:07;21.27;;;16.93;;
58412;SDS011;44209;52.952;6.790;2024-01-30T07:35:34;22.63;;;17.10;;
58412;SDS011;44209;52.952;6.790;2024-01-30T07:38:00;22.17;;;16.13;;
58412;SDS011;44209;52.952;6.790;2024-01-30T07:40:27;24.17;;;16.70;;
58412;SDS011;44209;52.952;6.790;2024-01-30T07:42:53;24.17;;;17.17;;
58412;SDS011;44209;52.952;6.790;2024-01-30T07:45:19;21.87;;;17.53;;
58412;SDS011;44209;52.952;6.790;2024-01-30T07:47:49;21.73;;;16.60;;
58412;SDS011;44209;52.952;6.790;2024-01-30T07:50:15;21.43;;;16.83;;
58412;SDS011;44209;52.952;6.790;2024-01-30T07:52:42;23.53;;;16.90;;
58412;SDS011;44209;52.952;6.790;2024-01-30T07:55:08;22.47;;;17.10;;
58412;SDS011;44209;52.952;6.790;2024-01-30T07:57:38;23.73;;;17.20;;
58412;SDS011;44209;52.952;6.790;2024-01-30T08:00:04;23.80;;;17.07;;
58412;SDS011;44209;52.952;6.790;2024-01-30T08:02:32;22.20;;;16.50;;
58412;SDS011;44209;52.952;6.790;2024-01-30T08:04:58;24.53;;;16.83;;
58412;SDS011;44209;52.952;6.790;2024-01-30T08:07:23;24.70;;;16.73;;
58412;SDS011;44209;52.952;6.790;2024-01-30T08:09:49;23.47;;;16.77;;
58412;SDS011;44209;52.952;6.790;2024-01-30T08:12:15;20.53;;;16.47;;
58412;SDS011;44209;52.952;6.790;2024-01-30T08:14:41;21.77;;;17.17;;
58412;SDS011;44209;52.952;6.790;2024-01-30T08:17:07;23.97;;;16.97;;
58412;SDS011;44209;52.952;6.790;2024-01-30T08:19:33;20.27;;;15.90;;
58412;SDS011;44209;52.952;6.790;2024-01-30T08:21:59;22.33;;;17.00;;
58412;SDS011;44209;52.952;6.790;2024-01-30T08:24:24;21.33;;;16.03;;
58412;SDS011;44209;52.952;6.790;2024-01-30T08:26:50;21.43;;;16.40;;
58412;SDS011;44209;52.952;6.790;2024-01-30T08:29:16;22.27;;;16.90;;
58412;SDS011;44209;52.952;6.790;2024-01-30T08:31:41;22.17;;;16.30;;
58412;SDS011;44209;52.952;6.790;2024-01-30T08:34:07;22.37;;;16.87;;
58412;SDS011;44209;52.952;6.790;2024-01-30T08:36:33;20.37;;;15.93;;
58412;SDS011;44209;52.952;6.790;2024-01-30T08:38:59;19.20;;;15.23;;
58412;SDS011;44209;52.952;6.790;2024-01-30T08:41:24;22.67;;;16.53;;
58412;SDS011;44209;52.952;6.790;2024-01-30T08:43:50;22.67;;;15.73;;
58412;SDS011;44209;52.952;6.790;2024-01-30T08:46:17;21.57;;;16.07;;
58412;SDS011;44209;52.952;6.790;2024-01-30T08:48:43;22.13;;;15.73;;
58412;SDS011;44209;52.952;6.790;2024-01-30T08:51:09;20.63;;;15.40;;
58412;SDS011;44209;52.952;6.790;2024-01-30T08:53:35;21.97;;;16.03;;
58412;SDS011;44209;52.952;6.790;2024-01-30T08:56:02;20.63;;;15.50;;
58412;SDS011;44209;52.952;6.790;2024-01-30T08:58:28;21.40;;;15.80;;
58412;SDS011;44209;52.952;6.790;2024-01-30T09:00:54;21.83;;;16.20;;
58412;SDS011;44209;52.952;6.790;2024-01-30T09:03:19;19.40;;;14.70;;
58412;SDS011;44209;52.952;6.790;2024-01-30T09:05:45;20.27;;;15.00;;
58412;SDS011;44209;52.952;6.790;2024-01-30T09:08:11;19.60;;;15.63;;
58412;SDS011;44209;52.952;6.790;2024-01-30T09:10:37;21.43;;;15.20;;
58412;SDS011;44209;52.952;6.790;2024-01-30T09:13:02;19.03;;;14.57;;
58412;SDS011;44209;52.952;6.790;2024-01-30T09:15:28;19.77;;;15.07;;
58412;SDS011;44209;52.952;6.790;2024-01-30T09:17:54;20.60;;;15.30;;
58412;SDS011;44209;52.952;6.790;2024-01-30T09:20:20;20.17;;;15.00;;
58412;SDS011;44209;52.952;6.790;2024-01-30T09:22:47;20.50;;;15.60;;
58412;SDS011;44209;52.952;6.790;2024-01-30T09:25:13;21.87;;;14.60;;
58412;SDS011;44209;52.952;6.790;2024-01-30T09:27:40;19.20;;;14.67;;
58412;SDS011;44209;52.952;6.790;2024-01-30T09:30:06;21.20;;;15.00;;
58412;SDS011;44209;52.952;6.790;2024-01-30T09:32:32;20.23;;;14.80;;
58412;SDS011;44209;52.952;6.790;2024-01-30T09:34:58;21.03;;;15.47;;
58412;SDS011;44209;52.952;6.790;2024-01-30T09:37:24;22.07;;;15.50;;
58412;SDS011;44209;52.952;6.790;2024-01-30T09:39:50;20.70;;;15.43;;
58412;SDS011;44209;52.952;6.790;2024-01-30T09:45:00;22.67;;;14.83;;
58412;SDS011;44209;52.952;6.790;2024-01-30T09:47:30;22.80;;;15.17;;
58412;SDS011;44209;52.952;6.790;2024-01-30T09:49:57;20.17;;;14.73;;
58412;SDS011;44209;52.952;6.790;2024-01-30T09:52:23;19.27;;;15.13;;
58412;SDS011;44209;52.952;6.790;2024-01-30T09:54:49;20.03;;;14.73;;
58412;SDS011;44209;52.952;6.790;2024-01-30T09:57:17;19.53;;;14.93;;
58412;SDS011;44209;52.952;6.790;2024-01-30T09:59:43;23.40;;;14.53;;
58412;SDS011;44209;52.952;6.790;2024-01-30T10:02:09;18.47;;;14.07;;
58412;SDS011;44209;52.952;6.790;2024-01-30T10:04:35;20.50;;;14.63;;
58412;SDS011;44209;52.952;6.790;2024-01-30T10:07:03;18.87;;;14.33;;
58412;SDS011;44209;52.952;6.790;2024-01-30T10:09:31;18.00;;;13.50;;
58412;SDS011;44209;52.952;6.790;2024-01-30T10:11:58;18.53;;;13.33;;
58412;SDS011;44209;52.952;6.790;2024-01-30T10:14:24;18.30;;;13.83;;
58412;SDS011;44209;52.952;6.790;2024-01-30T10:16:50;18.60;;;13.70;;
58412;SDS011;44209;52.952;6.790;2024-01-30T10:19:16;17.57;;;13.53;;
58412;SDS011;44209;52.952;6.790;2024-01-30T10:21:42;19.17;;;13.60;;
58412;SDS011;44209;52.952;6.790;2024-01-30T10:24:07;16.83;;;13.00;;
58412;SDS011;44209;52.952;6.790;2024-01-30T10:26:33;21.00;;;13.37;;
58412;SDS011;44209;52.952;6.790;2024-01-30T10:28:59;22.77;;;13.93;;
58412;SDS011;44209;52.952;6.790;2024-01-30T10:31:25;17.90;;;12.73;;
58412;SDS011;44209;52.952;6.790;2024-01-30T10:33:51;17.00;;;12.97;;
58412;SDS011;44209;52.952;6.790;2024-01-30T10:36:16;17.87;;;13.53;;
58412;SDS011;44209;52.952;6.790;2024-01-30T10:38:43;19.10;;;13.10;;
58412;SDS011;44209;52.952;6.790;2024-01-30T10:41:11;17.60;;;13.07;;
58412;SDS011;44209;52.952;6.790;2024-01-30T10:43:40;19.67;;;13.23;;
58412;SDS011;44209;52.952;6.790;2024-01-30T10:46:11;20.50;;;13.17;;
58412;SDS011;44209;52.952;6.790;2024-01-30T10:48:50;17.60;;;13.10;;
58412;SDS011;44209;52.952;6.790;2024-01-30T10:51:22;16.60;;;13.20;;
58412;SDS011;44209;52.952;6.790;2024-01-30T10:53:48;21.93;;;14.30;;
58412;SDS011;44209;52.952;6.790;2024-01-30T10:56:16;18.30;;;13.80;;
58412;SDS011;44209;52.952;6.790;2024-01-30T10:58:43;17.93;;;12.97;;
58412;SDS011;44209;52.952;6.790;2024-01-30T11:01:09;20.93;;;14.17;;
58412;SDS011;44209;52.952;6.790;2024-01-30T11:03:35;19.13;;;13.10;;
58412;SDS011;44209;52.952;6.790;2024-01-30T11:06:02;17.03;;;12.70;;
58412;SDS011;44209;52.952;6.790;2024-01-30T11:08:28;20.10;;;13.00;;
58412;SDS011;44209;52.952;6.790;2024-01-30T11:10:57;16.80;;;13.00;;
58412;SDS011;44209;52.952;6.790;2024-01-30T11:13:30;19.53;;;13.17;;
58412;SDS011;44209;52.952;6.790;2024-01-30T11:16:03;21.27;;;13.50;;
58412;SDS011;44209;52.952;6.790;2024-01-30T11:18:30;18.77;;;13.73;;
58412;SDS011;44209;52.952;6.790;2024-01-30T11:20:57;17.27;;;12.83;;
58412;SDS011;44209;52.952;6.790;2024-01-30T11:23:23;19.67;;;13.47;;
58412;SDS011;44209;52.952;6.790;2024-01-30T11:25:52;17.23;;;13.33;;
58412;SDS011;44209;52.952;6.790;2024-01-30T11:28:18;22.60;;;13.33;;
58412;SDS011;44209;52.952;6.790;2024-01-30T11:30:45;18.80;;;13.30;;
58412;SDS011;44209;52.952;6.790;2024-01-30T11:33:13;18.20;;;14.00;;
58412;SDS011;44209;52.952;6.790;2024-01-30T11:35:43;20.80;;;13.90;;
58412;SDS011;44209;52.952;6.790;2024-01-30T11:38:10;19.43;;;14.43;;
58412;SDS011;44209;52.952;6.790;2024-01-30T11:40:38;20.60;;;13.80;;
58412;SDS011;44209;52.952;6.790;2024-01-30T11:43:05;17.67;;;13.43;;
58412;SDS011;44209;52.952;6.790;2024-01-30T11:45:32;19.53;;;13.70;;
58412;SDS011;44209;52.952;6.790;2024-01-30T11:47:58;18.33;;;13.90;;
58412;SDS011;44209;52.952;6.790;2024-01-30T11:50:26;21.53;;;14.43;;
58412;SDS011;44209;52.952;6.790;2024-01-30T11:52:53;18.90;;;14.33;;
58412;SDS011;44209;52.952;6.790;2024-01-30T11:55:19;19.67;;;13.53;;
58412;SDS011;44209;52.952;6.790;2024-01-30T11:57:45;22.57;;;14.30;;
58412;SDS011;44209;52.952;6.790;2024-01-30T12:00:14;19.13;;;14.90;;
58412;SDS011;44209;52.952;6.790;2024-01-30T12:02:41;22.27;;;14.23;;
58412;SDS011;44209;52.952;6.790;2024-01-30T12:05:07;20.27;;;14.43;;
58412;SDS011;44209;52.952;6.790;2024-01-30T12:07:34;20.73;;;14.60;;
58412;SDS011;44209;52.952;6.790;2024-01-30T12:10:00;18.90;;;13.60;;
58412;SDS011;44209;52.952;6.790;2024-01-30T12:12:27;19.37;;;14.43;;
58412;SDS011;44209;52.952;6.790;2024-01-30T12:14:54;19.17;;;13.80;;
58412;SDS011;44209;52.952;6.790;2024-01-30T12:17:30;20.57;;;14.53;;
58412;SDS011;44209;52.952;6.790;2024-01-30T12:20:13;22.40;;;15.17;;
58412;SDS011;44209;52.952;6.790;2024-01-30T12:22:44;18.90;;;14.10;;
58412;SDS011;44209;52.952;6.790;2024-01-30T12:25:18;19.83;;;14.10;;
58412;SDS011;44209;52.952;6.790;2024-01-30T12:27:46;22.47;;;14.70;;
58412;SDS011;44209;52.952;6.790;2024-01-30T12:30:16;18.63;;;13.80;;
58412;SDS011;44209;52.952;6.790;2024-01-30T12:32:45;22.73;;;13.60;;
58412;SDS011;44209;52.952;6.790;2024-01-30T12:35:16;22.20;;;14.73;;
58412;SDS011;44209;52.952;6.790;2024-01-30T12:37:43;21.50;;;14.93;;
58412;SDS011;44209;52.952;6.790;2024-01-30T12:40:10;25.57;;;14.70;;
58412;SDS011;44209;52.952;6.790;2024-01-30T12:42:38;22.57;;;13.77;;
58412;SDS011;44209;52.952;6.790;2024-01-30T12:45:04;29.60;;;13.03;;
58412;SDS011;44209;52.952;6.790;2024-01-30T12:47:31;14.73;;;10.80;;
58412;SDS011;44209;52.952;6.790;2024-01-30T12:49:57;14.93;;;8.60;;
58412;SDS011;44209;52.952;6.790;2024-01-30T12:52:23;13.23;;;7.27;;
58412;SDS011;44209;52.952;6.790;2024-01-30T12:54:49;12.40;;;7.10;;
58412;SDS011;44209;52.952;6.790;2024-01-30T12:57:15;13.60;;;6.33;;
58412;SDS011;44209;52.952;6.790;2024-01-30T12:59:42;10.50;;;6.43;;
58412;SDS011;44209;52.952;6.790;2024-01-30T13:02:12;9.33;;;5.20;;
58412;SDS011;44209;52.952;6.790;2024-01-30T13:04:38;10.07;;;4.80;;
58412;SDS011;44209;52.952;6.790;2024-01-30T13:07:04;7.73;;;4.03;;
58412;SDS011;44209;52.952;6.790;2024-01-30T13:09:30;8.73;;;4.00;;
58412;SDS011;44209;52.952;6.790;2024-01-30T13:11:59;5.50;;;3.70;;
58412;SDS011;44209;52.952;6.790;2024-01-30T13:14:25;7.00;;;3.27;;
58412;SDS011;44209;52.952;6.790;2024-01-30T13:16:51;7.73;;;3.70;;
58412;SDS011;44209;52.952;6.790;2024-01-30T13:19:17;4.43;;;3.20;;
58412;SDS011;44209;52.952;6.790;2024-01-30T13:21:43;6.40;;;3.37;;
58412;SDS011;44209;52.952;6.790;2024-01-30T13:24:09;5.10;;;3.23;;
58412;SDS011;44209;52.952;6.790;2024-01-30T13:26:35;3.93;;;3.40;;
58412;SDS011;44209;52.952;6.790;2024-01-30T13:29:01;3.57;;;3.20;;
58412;SDS011;44209;52.952;6.790;2024-01-30T13:31:27;3.77;;;3.47;;
58412;SDS011;44209;52.952;6.790;2024-01-30T13:33:53;3.67;;;3.10;;
58412;SDS011;44209;52.952;6.790;2024-01-30T13:36:19;4.93;;;3.50;;
58412;SDS011;44209;52.952;6.790;2024-01-30T13:38:45;4.97;;;3.50;;
58412;SDS011;44209;52.952;6.790;2024-01-30T13:41:11;5.43;;;3.50;;
58412;SDS011;44209;52.952;6.790;2024-01-30T13:43:36;4.20;;;2.93;;
58412;SDS011;44209;52.952;6.790;2024-01-30T13:46:02;4.20;;;2.57;;
58412;SDS011;44209;52.952;6.790;2024-01-30T13:48:28;4.07;;;2.83;;
58412;SDS011;44209;52.952;6.790;2024-01-30T13:50:54;3.53;;;2.03;;
58412;SDS011;44209;52.952;6.790;2024-01-30T13:53:20;2.77;;;1.93;;
58412;SDS011;44209;52.952;6.790;2024-01-30T13:55:46;4.00;;;2.10;;
58412;SDS011;44209;52.952;6.790;2024-01-30T13:58:12;6.33;;;2.60;;
58412;SDS011;44209;52.952;6.790;2024-01-30T14:00:38;3.93;;;2.67;;
58412;SDS011;44209;52.952;6.790;2024-01-30T14:03:04;4.33;;;2.83;;
58412;SDS011;44209;52.952;6.790;2024-01-30T14:05:30;5.87;;;3.43;;
58412;SDS011;44209;52.952;6.790;2024-01-30T14:07:56;4.63;;;2.70;;
58412;SDS011;44209;52.952;6.790;2024-01-30T14:10:22;4.77;;;3.17;;
58412;SDS011;44209;52.952;6.790;2024-01-30T14:12:49;5.07;;;2.90;;
58412;SDS011;44209;52.952;6.790;2024-01-30T14:15:15;5.50;;;2.70;;
58412;SDS011;44209;52.952;6.790;2024-01-30T14:17:43;4.40;;;2.83;;
58412;SDS011;44209;52.952;6.790;2024-01-30T14:20:10;4.03;;;2.67;;
58412;SDS011;44209;52.952;6.790;2024-01-30T14:22:36;2.60;;;2.00;;